KFTK/FTK METAR and TAF weather

Enter ICAO airport designator
Station Type Date Time Source
KFTK METAR 2019/02/20 22:56 UTC NOAA

KFTK 202256Z AUTO 21007KT 3SM BR M 12/12 A2983 RMK AO2 RAE28DZB28E29 SLP107 P0003 T01190119 CHINO RWY36 $


Station Type Date Time Source
KFTK Decoded METAR 2019/02/20 22:56 UTC NOAA

Fort Knox, KY, United States (KFTK) 37-54N 085-58W 230M
Feb 20, 2019 - 05:56 PM EST / 2019.02.20 2256 UTC
Wind: from the SSW (210 degrees) at 8 MPH (7 KT):0
Visibility: 3 mile(s):0
Weather: mist
Precipitation last hour: 0.03 inches
Temperature: 53.4 F (11.9 C)
Dew Point: 53.4 F (11.9 C)
Relative Humidity: 100%
Pressure (altimeter): 29.83 in. Hg (1010 hPa)
ob: KFTK 202256Z AUTO 21007KT 3SM BR M 12/12 A2983 RMK AO2 RAE28DZB28E29 SLP107 P0003 T01190119 CHINO RWY36
cycle: 23

Station Type Date Time Source
KFTK TAF 2019/02/20 21:27 UTC NOAA

TAF
AMD KFTK 202119Z 2021/2123 20009KT 4000 -RA BR OVC003 QNH2977INS
BECMG 2023/2024 23006KT 9000 BR OVC005 QNH2980INS
BECMG 2102/2103 25006KT 9999 NSW OVC015 QNH2995INS
BECMG 2115/2116 VRB06KT 9999 BKN015 OVC120 QNH3022INS
BECMG 2117/2118 VRB06KT 9999 SCT020 BKN150 QNH3022INS TX12/2021Z TN01/2111Z


Example: see airport list